Terminal Aerodrome Forecast
Issued by NWS

Home | Current Version | Previous Version | Text Only | Print | Product List | Glossary On
Versions: 1 2 3 4 5 6 7 8 9 10 11 12 13 14 15 16 17 18 19 20 21 22 23 24
000
FTUS44 KLIX 061730
TAFHDC
TAF
KHDC 061730Z 0618/0718 14007KT P6SM SCT028 BKN040
     FM062100 20007KT P6SM VCTS SCT025CB
     FM070100 18004KT P6SM BKN120
      TEMPO 0710/0712 5SM BR BKN005=

USA.gov is the U.S. government's official web portal to all federal, state and local government web resources and services.